createdAt,value
2022-11-30T00:04:15.376Z,5.43
2022-11-30T00:09:16.765Z,5.61
2022-11-30T00:14:18.673Z,5.68
2022-11-30T00:19:18.582Z,5.71
2022-11-30T00:24:16.640Z,5.64
2022-11-30T00:29:16.834Z,5.51
2022-11-30T00:34:15.259Z,5.56
2022-11-30T00:39:14.649Z,5.81
2022-11-30T00:44:16.628Z,5.65
2022-11-30T00:49:15.891Z,5.68
2022-11-30T00:54:14.238Z,5.90
2022-11-30T00:59:13.121Z,5.80
2022-11-30T01:04:13.932Z,5.33
2022-11-30T01:09:14.123Z,5.81
2022-11-30T01:14:16.725Z,5.65
2022-11-30T01:19:17.213Z,5.55
2022-11-30T01:24:19.495Z,5.28
2022-11-30T01:29:20.864Z,5.18
2022-11-30T01:34:27.339Z,5.38
2022-11-30T01:39:27.094Z,5.12
2022-11-30T01:44:28.879Z,5.11
2022-11-30T01:49:28.877Z,4.91
2022-11-30T01:54:34.886Z,4.90
2022-11-30T01:59:33.543Z,4.98
2022-11-30T02:04:32.839Z,4.87
2022-11-30T02:09:32.629Z,4.95
2022-11-30T02:14:33.102Z,5.16
2022-11-30T02:19:40.573Z,5.33
2022-11-30T02:24:51.493Z,5.02
2022-11-30T02:30:06.719Z,5.12
2022-11-30T02:35:10.191Z,5.37
2022-11-30T02:40:14.330Z,5.15
2022-11-30T02:45:15.284Z,5.35
2022-11-30T02:50:16.234Z,5.03
2022-11-30T02:55:17.578Z,5.06
2022-11-30T03:00:16.522Z,5.03
2022-11-30T03:05:14.760Z,5.14
2022-11-30T03:10:14.017Z,5.04
2022-11-30T03:15:16.927Z,4.91
2022-11-30T03:20:16.800Z,4.80
2022-11-30T03:25:14.993Z,5.09
2022-11-30T03:30:12.712Z,4.87
2022-11-30T03:35:10.858Z,4.88
2022-11-30T03:40:12.103Z,5.05
2022-11-30T03:45:12.687Z,4.82
2022-11-30T03:50:15.839Z,4.96
2022-11-30T03:55:13.753Z,5.44
2022-11-30T04:00:15.922Z,5.17
2022-11-30T04:05:15.925Z,5.15
2022-11-30T04:10:16.249Z,5.13
2022-11-30T04:15:15.386Z,4.85
2022-11-30T04:20:13.226Z,5.07
2022-11-30T04:25:22.642Z,5.30
2022-11-30T04:30:22.358Z,5.12
2022-11-30T04:35:20.416Z,4.98
2022-11-30T04:40:18.128Z,5.14
2022-11-30T04:45:24.765Z,4.91
2022-11-30T04:50:37.168Z,4.80
2022-11-30T04:55:48.241Z,5.00
2022-11-30T05:00:46.881Z,4.92
2022-11-30T05:05:52.426Z,5.15
2022-11-30T05:10:53.650Z,4.68
2022-11-30T05:15:55.944Z,4.71
2022-11-30T05:20:54.606Z,4.45
2022-11-30T05:25:56.579Z,4.63
2022-11-30T05:30:57.646Z,4.54
2022-11-30T05:36:04.603Z,4.53
2022-11-30T05:41:07.583Z,4.39
2022-11-30T05:46:05.516Z,4.57
2022-11-30T05:51:09.609Z,4.43
2022-11-30T05:56:10.364Z,4.51
2022-11-30T06:01:08.787Z,4.74
2022-11-30T06:06:06.763Z,4.54
2022-11-30T06:11:12.917Z,4.59
2022-11-30T06:16:12.024Z,4.92
2022-11-30T06:21:13.372Z,5.11
2022-11-30T06:26:11.759Z,4.92
2022-11-30T06:31:12.998Z,4.57
2022-11-30T06:36:13.529Z,4.50
2022-11-30T06:41:12.695Z,4.58
2022-11-30T06:46:13.745Z,4.27
2022-11-30T06:51:13.205Z,4.30
2022-11-30T06:56:11.126Z,4.24
2022-11-30T07:01:12.683Z,4.26
2022-11-30T07:06:14.705Z,4.32
2022-11-30T07:11:13.185Z,4.23
2022-11-30T07:16:14.262Z,4.22
2022-11-30T07:21:15.765Z,4.51
2022-11-30T07:26:14.133Z,4.77
2022-11-30T07:31:21.439Z,4.31
2022-11-30T07:36:26.127Z,4.30
2022-11-30T07:41:24.922Z,4.19
2022-11-30T07:46:24.024Z,4.06
2022-11-30T07:51:26.352Z,4.13
2022-11-30T07:56:25.158Z,4.37
2022-11-30T08:01:24.540Z,4.36
2022-11-30T08:06:26.105Z,4.26
2022-11-30T08:11:27.121Z,4.29
2022-11-30T08:16:26.281Z,4.38
2022-11-30T08:21:28.054Z,4.24
2022-11-30T08:26:30.525Z,4.14
2022-11-30T08:31:30.341Z,3.95
2022-11-30T08:36:31.111Z,4.07
2022-11-30T08:41:33.098Z,4.10
2022-11-30T08:57:51.587Z,4.38
2022-11-30T09:02:53.522Z,4.23
2022-11-30T09:07:53.328Z,4.14
2022-11-30T09:12:52.489Z,4.31
2022-11-30T09:17:52.408Z,4.54
2022-11-30T09:22:53.695Z,4.88
2022-11-30T09:27:52.092Z,4.26
2022-11-30T09:32:51.729Z,4.51
2022-11-30T09:37:49.275Z,4.86
2022-11-30T09:42:46.985Z,4.83
2022-11-30T09:48:02.608Z,5.09
2022-11-30T09:53:04.983Z,4.53
2022-11-30T09:58:28.247Z,4.46
2022-11-30T10:03:27.813Z,4.41
2022-11-30T10:08:44.896Z,4.87
2022-11-30T10:13:51.020Z,5.57
2022-11-30T10:19:11.902Z,5.15
2022-11-30T10:24:23.127Z,5.02
2022-11-30T10:29:26.853Z,5.34
2022-11-30T10:34:26.744Z,4.96
2022-11-30T10:39:36.205Z,5.42
2022-11-30T10:44:37.324Z,5.55
2022-11-30T10:49:37.091Z,5.35
2022-11-30T10:54:46.913Z,5.05
2022-11-30T10:59:51.061Z,5.32
2022-11-30T11:05:19.694Z,4.85
2022-11-30T11:10:31.232Z,5.00
2022-11-30T11:15:33.874Z,5.07
2022-11-30T11:20:33.310Z,5.00
2022-11-30T11:25:38.053Z,5.23
2022-11-30T11:30:37.329Z,5.17
2022-11-30T11:35:43.347Z,5.43
2022-11-30T11:40:41.801Z,5.41
2022-11-30T11:45:40.691Z,5.32
2022-11-30T11:51:06.199Z,5.37
2022-11-30T11:56:22.082Z,5.15
2022-11-30T12:01:39.601Z,5.27
2022-11-30T12:06:41.515Z,5.49
2022-11-30T12:11:39.375Z,5.48
2022-11-30T12:16:37.851Z,5.66
2022-11-30T12:21:49.981Z,5.34
2022-11-30T12:26:48.157Z,5.55
2022-11-30T12:31:55.406Z,5.52
2022-11-30T12:37:11.132Z,5.28
2022-11-30T12:42:12.799Z,5.02
2022-11-30T12:47:31.321Z,5.39
2022-11-30T12:52:36.661Z,4.83
2022-11-30T12:57:40.163Z,4.72
2022-11-30T13:02:41.955Z,4.88
2022-11-30T13:07:47.997Z,4.96
2022-11-30T13:12:46.284Z,5.23
2022-11-30T13:17:45.052Z,5.01
2022-11-30T13:22:47.033Z,5.15
2022-11-30T13:27:56.949Z,5.14
2022-11-30T13:33:25.310Z,5.12
2022-11-30T13:38:39.496Z,4.97
2022-11-30T13:43:50.324Z,5.06
2022-11-30T13:48:49.318Z,4.93
2022-11-30T13:54:18.118Z,4.92
2022-11-30T13:59:23.880Z,4.64
2022-11-30T14:04:31.895Z,4.62
2022-11-30T14:09:40.987Z,4.69
2022-11-30T14:14:47.135Z,4.90
2022-11-30T14:19:46.506Z,4.68
2022-11-30T14:24:45.907Z,4.59
2022-11-30T14:29:46.423Z,4.87
2022-11-30T14:34:46.773Z,4.80
2022-11-30T14:39:45.697Z,4.44
2022-11-30T14:44:44.798Z,4.75
2022-11-30T14:49:46.206Z,5.21
2022-11-30T14:54:55.824Z,4.82
2022-11-30T14:59:57.199Z,4.62
2022-11-30T15:04:55.955Z,4.71
2022-11-30T15:09:56.680Z,5.09
2022-11-30T15:15:05.561Z,5.04
2022-11-30T15:20:19.026Z,4.69
2022-11-30T15:25:17.929Z,4.82
2022-11-30T15:30:16.241Z,4.67
2022-11-30T15:35:18.729Z,4.78
2022-11-30T15:40:27.095Z,4.74
2022-11-30T15:45:30.269Z,4.90
2022-11-30T15:50:31.341Z,4.66
2022-11-30T15:55:45.800Z,4.67
2022-11-30T16:00:59.724Z,3.97
2022-11-30T16:05:59.380Z,3.90
2022-11-30T16:11:01.985Z,4.13
2022-11-30T16:16:11.808Z,4.35
2022-11-30T16:21:10.436Z,4.03
2022-11-30T16:26:23.097Z,4.12
2022-11-30T16:31:32.445Z,4.12
2022-11-30T16:36:34.833Z,4.39
2022-11-30T16:41:33.927Z,4.28
2022-11-30T16:46:32.846Z,4.33
2022-11-30T16:51:32.261Z,4.54
2022-11-30T16:56:31.167Z,4.51
2022-11-30T17:01:36.176Z,4.71
2022-11-30T17:06:38.459Z,4.55
2022-11-30T17:11:40.019Z,4.24
2022-11-30T17:16:40.640Z,4.22
2022-11-30T17:21:43.362Z,4.04
2022-11-30T17:26:44.073Z,3.91
2022-11-30T17:31:41.799Z,4.06
2022-11-30T17:36:49.039Z,3.75
2022-11-30T17:41:47.350Z,3.73
2022-11-30T17:46:48.217Z,3.83
2022-11-30T17:51:47.152Z,3.72
2022-11-30T17:56:46.228Z,4.04
2022-11-30T18:01:47.589Z,3.89
2022-11-30T18:06:46.138Z,4.15
2022-11-30T18:11:45.057Z,4.26
2022-11-30T18:16:47.486Z,4.35
2022-11-30T18:21:45.843Z,4.21
2022-11-30T18:26:59.492Z,4.44
2022-11-30T18:32:01.583Z,4.81
2022-11-30T18:37:00.942Z,4.25
2022-11-30T18:42:00.656Z,4.28
2022-11-30T18:47:00.117Z,4.08
2022-11-30T18:52:01.235Z,3.79
2022-11-30T18:57:02.441Z,3.90
2022-11-30T19:02:05.680Z,3.96
2022-11-30T19:07:08.993Z,4.07
2022-11-30T19:12:13.583Z,4.03
2022-11-30T19:17:14.150Z,3.83
2022-11-30T19:22:32.833Z,3.95
2022-11-30T19:27:31.286Z,4.12
2022-11-30T19:32:31.014Z,4.19
2022-11-30T19:37:31.226Z,3.91
2022-11-30T19:42:34.381Z,4.26
2022-11-30T19:47:34.967Z,4.07
2022-11-30T19:52:36.242Z,4.28
2022-11-30T19:57:37.690Z,3.88
2022-11-30T20:02:38.759Z,3.93
2022-11-30T20:07:40.718Z,3.90
2022-11-30T20:12:39.341Z,3.68
2022-11-30T20:17:37.335Z,3.89
2022-11-30T20:22:36.181Z,3.77
2022-11-30T20:27:35.283Z,3.81
2022-11-30T20:32:36.285Z,3.58
2022-11-30T20:37:35.159Z,3.75
2022-11-30T20:42:32.383Z,3.76
2022-11-30T20:47:34.866Z,3.99
2022-11-30T20:52:34.275Z,4.18
2022-11-30T20:57:33.419Z,4.04
2022-11-30T21:02:31.827Z,3.76
2022-11-30T21:07:30.830Z,3.71
2022-11-30T21:12:28.882Z,3.80
2022-11-30T21:17:27.609Z,3.56
2022-11-30T21:22:31.890Z,3.64
2022-11-30T21:27:32.702Z,3.45
2022-11-30T21:32:31.855Z,3.44
2022-11-30T21:37:31.725Z,3.20
2022-11-30T21:42:28.946Z,3.33
2022-11-30T21:47:30.153Z,3.10
2022-11-30T21:52:28.046Z,3.52
2022-11-30T21:57:28.149Z,3.46
2022-11-30T22:02:27.785Z,3.38
2022-11-30T22:07:32.303Z,3.32
2022-11-30T22:12:33.190Z,3.69
2022-11-30T22:17:30.623Z,3.65
2022-11-30T22:22:32.699Z,3.42
2022-11-30T22:27:30.556Z,3.64
2022-11-30T22:32:29.095Z,3.50
2022-11-30T22:37:28.542Z,3.50
2022-11-30T22:42:27.720Z,3.15
2022-11-30T22:47:32.308Z,3.41
2022-11-30T22:53:01.402Z,3.54
2022-11-30T22:57:57.164Z,3.08
2022-11-30T23:02:55.990Z,3.04
2022-11-30T23:07:53.262Z,2.90
2022-11-30T23:12:59.528Z,3.06
2022-11-30T23:17:59.314Z,3.49
2022-11-30T23:22:58.041Z,3.70
2022-11-30T23:27:55.789Z,3.51
2022-11-30T23:32:57.900Z,3.72
2022-11-30T23:38:01.239Z,3.58
2022-11-30T23:43:02.808Z,3.69
2022-11-30T23:48:10.540Z,3.26
2022-11-30T23:53:10.089Z,3.35
2022-11-30T23:58:08.603Z,3.54
